createdAt,value
2022-11-29T00:01:29.884Z,2.80
2022-11-29T00:03:57.313Z,2.80
2022-11-29T00:06:29.267Z,2.70
2022-11-29T00:08:59.349Z,2.70
2022-11-29T00:11:48.608Z,2.70
2022-11-29T00:14:18.083Z,2.80
2022-11-29T00:16:45.516Z,2.80
2022-11-29T00:19:13.586Z,2.70
2022-11-29T00:21:40.422Z,2.70
2022-11-29T00:24:07.582Z,2.60
2022-11-29T00:26:34.519Z,2.70
2022-11-29T00:29:01.361Z,2.60
2022-11-29T00:31:30.524Z,2.50
2022-11-29T00:33:58.784Z,2.40
2022-11-29T00:36:26.624Z,2.40
2022-11-29T00:38:53.468Z,2.20
2022-11-29T00:41:21.008Z,2.20
2022-11-29T00:43:47.888Z,2.20
2022-11-29T00:46:14.840Z,2.20
2022-11-29T00:48:41.791Z,2.20
2022-11-29T00:51:09.270Z,2.10
2022-11-29T00:53:37.270Z,2.10
2022-11-29T00:56:05.701Z,2.00
2022-11-29T00:58:33.074Z,2.00
2022-11-29T01:00:59.970Z,2.00
2022-11-29T01:03:26.798Z,2.10
2022-11-29T01:05:53.762Z,2.10
2022-11-29T01:08:20.627Z,2.00
2022-11-29T01:10:47.459Z,2.00
2022-11-29T01:13:14.338Z,1.90
2022-11-29T01:15:41.675Z,2.00
2022-11-29T01:18:08.633Z,1.90
2022-11-29T01:20:35.492Z,1.80
2022-11-29T01:23:02.358Z,1.80
2022-11-29T01:25:29.534Z,1.80
2022-11-29T01:27:56.370Z,1.80
2022-11-29T01:30:23.216Z,1.80
2022-11-29T01:32:50.020Z,1.80
2022-11-29T01:35:16.939Z,1.80
2022-11-29T01:37:43.758Z,1.80
2022-11-29T01:40:11.035Z,1.90
2022-11-29T01:42:37.870Z,1.90
2022-11-29T01:45:08.137Z,1.90
2022-11-29T01:47:42.196Z,1.90
2022-11-29T01:50:10.023Z,1.90
2022-11-29T01:52:36.976Z,1.90
2022-11-29T01:55:07.550Z,1.80
2022-11-29T01:57:36.695Z,1.80
2022-11-29T02:00:12.980Z,1.90
2022-11-29T02:02:48.967Z,1.90
2022-11-29T02:05:18.615Z,1.80
2022-11-29T02:07:49.866Z,1.80
2022-11-29T02:10:18.080Z,1.80
2022-11-29T02:13:04.047Z,1.80
2022-11-29T02:15:38.472Z,1.80
2022-11-29T02:18:15.621Z,1.80
2022-11-29T02:21:09.978Z,1.90
2022-11-29T02:23:39.807Z,1.70
2022-11-29T02:26:43.843Z,1.90
2022-11-29T02:29:16.216Z,1.80
2022-11-29T02:31:52.243Z,1.90
2022-11-29T02:34:24.943Z,2.00
2022-11-29T02:37:16.037Z,2.00
2022-11-29T02:39:57.554Z,1.90
2022-11-29T02:43:08.450Z,1.90
2022-11-29T02:45:38.313Z,1.90
2022-11-29T02:48:08.188Z,1.80
2022-11-29T02:50:39.382Z,1.80
2022-11-29T02:53:21.266Z,1.90
2022-11-29T02:56:15.463Z,2.00
2022-11-29T02:58:51.083Z,2.00
2022-11-29T03:01:22.963Z,2.00
2022-11-29T03:04:11.059Z,1.90
2022-11-29T03:06:58.577Z,2.00
2022-11-29T03:09:45.398Z,1.90
2022-11-29T03:12:18.006Z,1.90
2022-11-29T03:14:44.954Z,1.90
2022-11-29T03:17:44.165Z,1.90
2022-11-29T03:20:14.046Z,1.80
2022-11-29T03:23:10.730Z,1.80
2022-11-29T03:25:53.596Z,1.90
2022-11-29T03:28:22.759Z,1.90
2022-11-29T03:31:33.622Z,1.90
2022-11-29T03:34:24.147Z,1.90
2022-11-29T03:37:14.280Z,1.90
2022-11-29T03:40:09.684Z,1.90
2022-11-29T03:42:40.716Z,1.80
2022-11-29T03:45:37.136Z,1.90
2022-11-29T03:48:31.370Z,2.00
2022-11-29T03:51:15.886Z,2.00
2022-11-29T03:53:55.425Z,1.90
2022-11-29T03:56:30.928Z,1.90
2022-11-29T03:59:00.550Z,1.90
2022-11-29T04:02:08.669Z,1.80
2022-11-29T04:04:56.928Z,1.80
2022-11-29T04:07:38.285Z,1.70
2022-11-29T04:10:30.427Z,1.80
2022-11-29T04:13:37.058Z,1.70
2022-11-29T04:16:41.284Z,1.80
2022-11-29T04:19:20.308Z,1.80
2022-11-29T04:21:56.374Z,1.60
2022-11-29T04:25:10.714Z,1.60
2022-11-29T04:28:15.085Z,1.70
2022-11-29T04:31:20.769Z,1.70
2022-11-29T04:34:05.358Z,1.80
2022-11-29T04:36:38.441Z,1.70
2022-11-29T04:39:22.928Z,1.70
2022-11-29T04:42:36.355Z,1.80
2022-11-29T04:45:36.520Z,1.80
2022-11-29T04:48:21.522Z,1.70
2022-11-29T04:50:56.387Z,1.70
2022-11-29T04:53:45.196Z,1.60
2022-11-29T04:56:37.248Z,1.70
2022-11-29T04:59:04.043Z,1.70
2022-11-29T05:01:56.495Z,1.60
2022-11-29T05:04:45.368Z,1.60
2022-11-29T05:07:25.232Z,1.60
2022-11-29T05:09:59.620Z,1.70
2022-11-29T05:12:51.128Z,1.70
2022-11-29T05:15:41.041Z,1.70
2022-11-29T05:18:22.597Z,1.90
2022-11-29T05:21:28.995Z,1.90
2022-11-29T05:24:22.279Z,1.90
2022-11-29T05:27:10.561Z,1.80
2022-11-29T05:29:42.082Z,1.80
2022-11-29T05:32:11.767Z,1.80
2022-11-29T05:34:50.661Z,1.70
2022-11-29T05:38:08.328Z,1.80
2022-11-29T05:40:43.936Z,1.70
2022-11-29T05:43:22.533Z,1.90
2022-11-29T05:46:16.173Z,1.80
2022-11-29T05:49:08.379Z,1.90
2022-11-29T05:52:13.749Z,1.90
2022-11-29T05:55:19.579Z,1.90
2022-11-29T05:57:58.872Z,1.80
2022-11-29T06:00:31.992Z,1.90
2022-11-29T06:03:19.251Z,1.90
2022-11-29T06:06:08.186Z,1.90
2022-11-29T06:08:52.213Z,2.00
2022-11-29T06:11:47.444Z,2.00
2022-11-29T06:14:36.285Z,2.10
2022-11-29T06:17:25.595Z,2.00
2022-11-29T06:19:53.363Z,1.90
2022-11-29T06:22:45.097Z,1.90
2022-11-29T06:25:23.797Z,2.00
2022-11-29T06:27:53.392Z,1.90
2022-11-29T06:30:28.927Z,2.00
2022-11-29T06:33:02.130Z,2.00
2022-11-29T06:35:59.507Z,1.90
2022-11-29T06:38:28.783Z,2.00
2022-11-29T06:41:02.149Z,2.10
2022-11-29T06:43:30.391Z,2.10
2022-11-29T06:46:33.318Z,2.10
2022-11-29T06:49:02.282Z,2.20
2022-11-29T06:51:49.785Z,2.10
2022-11-29T06:54:34.857Z,2.00
2022-11-29T06:57:15.387Z,2.00
2022-11-29T06:59:58.494Z,1.90
2022-11-29T07:02:59.591Z,1.90
2022-11-29T07:05:32.178Z,2.00
2022-11-29T07:08:22.929Z,1.90
2022-11-29T07:10:54.081Z,2.10
2022-11-29T07:13:21.806Z,2.00
2022-11-29T07:16:21.319Z,2.00
2022-11-29T07:19:22.717Z,2.00
2022-11-29T07:22:15.777Z,2.00
2022-11-29T07:24:51.381Z,2.00
2022-11-29T07:27:48.616Z,2.10
2022-11-29T07:30:33.234Z,2.00
2022-11-29T07:33:27.532Z,1.90
2022-11-29T07:36:05.587Z,2.00
2022-11-29T07:39:10.356Z,2.10
2022-11-29T07:41:43.655Z,2.20
2022-11-29T07:44:17.299Z,2.20
2022-11-29T07:46:44.390Z,2.20
2022-11-29T07:49:11.588Z,2.20
2022-11-29T07:51:38.596Z,2.20
2022-11-29T07:54:06.173Z,2.20
2022-11-29T07:56:33.017Z,2.10
2022-11-29T07:58:59.873Z,2.10
2022-11-29T08:01:26.827Z,2.20
2022-11-29T08:03:53.691Z,2.20
2022-11-29T08:06:25.792Z,2.20
2022-11-29T08:08:52.604Z,2.20
2022-11-29T08:11:19.518Z,2.10
2022-11-29T08:13:46.355Z,2.10
2022-11-29T08:16:22.417Z,2.20
2022-11-29T08:18:49.450Z,2.30
2022-11-29T08:21:19.100Z,2.40
2022-11-29T08:23:47.317Z,2.30
2022-11-29T08:26:15.142Z,2.30
2022-11-29T08:28:42.609Z,2.30
2022-11-29T08:31:12.505Z,2.30
2022-11-29T08:33:41.946Z,2.30
2022-11-29T08:36:14.489Z,2.40
2022-11-29T08:38:41.391Z,2.50
2022-11-29T08:41:11.819Z,2.50
2022-11-29T08:43:38.818Z,2.40
2022-11-29T08:46:05.848Z,2.40
2022-11-29T08:48:32.892Z,2.40
2022-11-29T08:50:59.783Z,2.40
2022-11-29T08:53:41.825Z,2.50
2022-11-29T08:59:05.922Z,2.50
2022-11-29T09:01:32.907Z,2.60
2022-11-29T09:03:59.860Z,2.70
2022-11-29T09:06:30.848Z,2.70
2022-11-29T09:08:58.471Z,2.60
2022-11-29T09:11:26.969Z,2.50
2022-11-29T09:14:05.849Z,2.60
2022-11-29T09:16:38.399Z,2.70
2022-11-29T09:19:06.359Z,2.60
2022-11-29T09:21:36.750Z,2.60
2022-11-29T09:24:06.436Z,2.60
2022-11-29T09:26:35.548Z,2.60
2022-11-29T09:29:04.401Z,2.70
2022-11-29T09:31:32.113Z,2.90
2022-11-29T09:33:59.478Z,2.80
2022-11-29T09:36:28.985Z,2.80
2022-11-29T09:38:56.910Z,3.00
2022-11-29T09:41:50.758Z,3.00
2022-11-29T09:44:39.289Z,3.10
2022-11-29T09:47:40.712Z,3.10
2022-11-29T09:50:22.731Z,3.20
2022-11-29T09:53:07.684Z,3.10
2022-11-29T09:56:02.024Z,3.10
2022-11-29T09:58:37.116Z,3.10
2022-11-29T10:01:09.427Z,3.00
2022-11-29T10:03:46.890Z,3.10
2022-11-29T10:06:27.028Z,3.20
2022-11-29T10:09:15.047Z,3.30
2022-11-29T10:11:57.370Z,3.20
2022-11-29T10:14:31.250Z,3.20
2022-11-29T10:17:04.517Z,3.30
2022-11-29T10:19:36.857Z,3.60
2022-11-29T10:22:16.936Z,3.70
2022-11-29T10:24:48.950Z,3.70
2022-11-29T10:27:23.227Z,3.50
2022-11-29T10:29:51.444Z,3.60
2022-11-29T10:32:21.368Z,3.60
2022-11-29T10:34:49.884Z,3.60
2022-11-29T10:37:21.814Z,3.60
2022-11-29T10:40:04.476Z,3.60
2022-11-29T10:42:50.048Z,3.60
2022-11-29T10:45:16.821Z,3.70
2022-11-29T10:47:46.566Z,3.80
2022-11-29T10:50:29.039Z,3.80
2022-11-29T10:53:05.920Z,3.90
2022-11-29T10:56:02.576Z,4.00
2022-11-29T10:58:30.891Z,4.00
2022-11-29T11:01:07.892Z,4.00
2022-11-29T11:03:53.011Z,4.10
2022-11-29T11:06:44.691Z,4.00
2022-11-29T11:09:29.456Z,3.90
2022-11-29T11:11:59.959Z,3.70
2022-11-29T11:14:33.287Z,3.80
2022-11-29T11:17:33.817Z,3.80
2022-11-29T11:20:08.831Z,3.70
2022-11-29T11:22:39.960Z,3.80
2022-11-29T11:25:25.261Z,3.80
2022-11-29T11:27:52.830Z,3.90
2022-11-29T11:30:29.446Z,3.80
2022-11-29T11:33:20.208Z,3.90
2022-11-29T11:36:14.790Z,3.90
2022-11-29T11:39:12.330Z,4.00
2022-11-29T11:42:01.055Z,4.00
2022-11-29T11:44:52.330Z,4.00
2022-11-29T11:47:25.814Z,4.00
2022-11-29T11:49:55.689Z,4.00
2022-11-29T11:52:30.262Z,3.90
2022-11-29T11:55:43.791Z,3.90
2022-11-29T11:58:13.835Z,4.00
2022-11-29T12:01:08.659Z,4.20
2022-11-29T12:04:20.016Z,4.10
2022-11-29T12:06:58.596Z,4.10
2022-11-29T12:09:31.116Z,4.20
2022-11-29T12:12:19.607Z,4.20
2022-11-29T12:15:10.950Z,4.10
2022-11-29T12:18:08.564Z,4.10
2022-11-29T12:20:48.705Z,4.20
2022-11-29T12:23:24.434Z,4.30
2022-11-29T12:25:57.380Z,4.40
2022-11-29T12:28:33.676Z,4.40
2022-11-29T12:31:19.166Z,4.40
2022-11-29T12:34:21.984Z,4.50
2022-11-29T12:37:03.444Z,4.50
2022-11-29T12:39:52.228Z,4.40
2022-11-29T12:42:46.129Z,4.50
2022-11-29T12:45:45.526Z,4.50
2022-11-29T12:48:25.906Z,4.50
2022-11-29T12:50:58.338Z,4.50
2022-11-29T12:54:06.797Z,4.50
2022-11-29T12:56:40.193Z,4.50
2022-11-29T12:59:34.293Z,4.40
2022-11-29T13:02:27.965Z,4.40
2022-11-29T13:05:09.805Z,4.40
2022-11-29T13:07:59.477Z,4.50
2022-11-29T13:10:48.312Z,4.50
2022-11-29T13:13:28.961Z,4.40
2022-11-29T13:16:15.881Z,4.40
2022-11-29T13:18:55.589Z,4.40
2022-11-29T13:21:56.354Z,4.40
2022-11-29T13:24:30.881Z,4.40
2022-11-29T13:26:58.134Z,4.40
2022-11-29T13:29:26.167Z,4.40
2022-11-29T13:31:53.291Z,4.50
2022-11-29T13:34:23.915Z,4.50
2022-11-29T13:37:19.029Z,4.40
2022-11-29T13:39:54.658Z,4.40
2022-11-29T13:42:39.950Z,4.40
2022-11-29T13:45:44.901Z,4.40
2022-11-29T13:48:51.319Z,4.30
2022-11-29T13:51:22.761Z,4.40
2022-11-29T13:53:49.805Z,4.30
2022-11-29T13:56:36.271Z,4.40
2022-11-29T13:59:08.652Z,4.40
2022-11-29T14:01:51.702Z,4.40
2022-11-29T14:04:27.601Z,4.30
2022-11-29T14:07:08.288Z,4.30
2022-11-29T14:09:57.764Z,4.20
2022-11-29T14:12:52.067Z,4.20
2022-11-29T14:15:23.426Z,4.10
2022-11-29T14:17:50.258Z,4.00
2022-11-29T14:20:23.235Z,4.00
2022-11-29T14:23:05.293Z,4.00
2022-11-29T14:26:02.068Z,4.00
2022-11-29T14:28:33.689Z,4.00
2022-11-29T14:31:03.805Z,4.00
2022-11-29T14:34:02.870Z,3.90
2022-11-29T14:36:58.760Z,3.90
2022-11-29T14:39:41.093Z,3.90
2022-11-29T14:42:18.843Z,3.90
2022-11-29T14:44:52.826Z,3.90
2022-11-29T14:47:49.060Z,3.80
2022-11-29T14:50:37.423Z,3.80
2022-11-29T14:53:07.211Z,3.80
2022-11-29T14:55:37.459Z,3.90
2022-11-29T14:58:06.390Z,3.90
2022-11-29T15:00:33.260Z,3.80
2022-11-29T15:03:12.962Z,3.70
2022-11-29T15:05:57.319Z,3.80
2022-11-29T15:08:27.156Z,3.70
2022-11-29T15:10:59.346Z,3.80
2022-11-29T15:13:38.689Z,3.80
2022-11-29T15:16:26.372Z,3.80
2022-11-29T15:19:05.172Z,3.70
2022-11-29T15:22:09.985Z,3.70
2022-11-29T15:25:02.330Z,3.70
2022-11-29T15:27:29.610Z,3.80
2022-11-29T15:29:56.587Z,3.80
2022-11-29T15:32:23.479Z,3.70
2022-11-29T15:34:53.354Z,3.70
2022-11-29T15:37:42.842Z,3.70
2022-11-29T15:40:17.434Z,3.80
2022-11-29T15:42:50.534Z,3.90
2022-11-29T15:45:33.919Z,3.80
2022-11-29T15:48:20.420Z,3.80
2022-11-29T15:50:59.761Z,3.80
2022-11-29T15:53:41.517Z,3.90
2022-11-29T15:56:16.758Z,3.90
2022-11-29T15:58:45.950Z,3.80
2022-11-29T16:01:20.752Z,3.80
2022-11-29T16:03:51.684Z,3.90
2022-11-29T16:06:41.345Z,3.90
2022-11-29T16:09:28.893Z,3.90
2022-11-29T16:11:55.805Z,4.10
2022-11-29T16:14:27.273Z,3.80
2022-11-29T16:16:57.321Z,3.90
2022-11-29T16:19:40.649Z,3.90
2022-11-29T16:22:24.200Z,3.90
2022-11-29T16:25:15.568Z,3.80
2022-11-29T16:27:42.949Z,3.90
2022-11-29T16:30:25.923Z,3.90
2022-11-29T16:33:03.570Z,3.90
2022-11-29T16:35:36.237Z,4.00
2022-11-29T16:38:06.486Z,3.90
2022-11-29T16:40:35.468Z,3.80
2022-11-29T16:43:19.535Z,3.80
2022-11-29T16:45:47.112Z,3.90
2022-11-29T16:48:23.232Z,3.90
2022-11-29T16:51:12.557Z,4.00
2022-11-29T16:53:53.132Z,4.00
2022-11-29T16:56:25.905Z,4.10
2022-11-29T16:59:25.740Z,4.10
2022-11-29T17:01:48.873Z,4.10
2022-11-29T17:04:23.801Z,4.20
2022-11-29T17:06:56.084Z,4.10
2022-11-29T17:09:28.537Z,4.20
2022-11-29T17:11:56.759Z,4.20
2022-11-29T17:14:23.766Z,4.30
2022-11-29T17:16:52.056Z,4.20
2022-11-29T17:19:24.130Z,4.20
2022-11-29T17:21:52.996Z,4.20
2022-11-29T17:24:22.178Z,4.10
2022-11-29T17:26:49.969Z,4.30
2022-11-29T17:29:18.272Z,4.10
2022-11-29T17:31:46.519Z,4.10
2022-11-29T17:34:13.730Z,4.10
2022-11-29T17:36:41.089Z,4.20
2022-11-29T17:39:08.968Z,4.20
2022-11-29T17:41:36.310Z,4.20
2022-11-29T17:44:03.404Z,4.10
2022-11-29T17:46:33.136Z,4.10
2022-11-29T17:49:02.305Z,4.10
2022-11-29T17:51:51.349Z,4.10
2022-11-29T17:54:16.730Z,4.10
2022-11-29T17:56:44.057Z,4.20
2022-11-29T17:59:11.338Z,4.20
2022-11-29T18:01:38.806Z,4.20
2022-11-29T18:04:07.114Z,4.20
2022-11-29T18:06:39.652Z,4.30
2022-11-29T18:09:09.017Z,4.40
2022-11-29T18:11:46.427Z,4.40
2022-11-29T18:14:16.709Z,4.30
2022-11-29T18:16:45.858Z,4.30
2022-11-29T18:19:16.032Z,4.30
2022-11-29T18:21:43.734Z,4.30
2022-11-29T18:24:11.586Z,4.30
2022-11-29T18:26:40.059Z,4.30
2022-11-29T18:29:08.960Z,4.20
2022-11-29T18:31:38.976Z,4.20
2022-11-29T18:34:09.907Z,4.20
2022-11-29T18:36:48.151Z,4.30
2022-11-29T18:39:18.227Z,4.30
2022-11-29T18:41:48.520Z,4.30
2022-11-29T18:44:18.033Z,4.30
2022-11-29T18:46:46.408Z,4.30
2022-11-29T18:49:15.990Z,4.30
2022-11-29T18:51:45.484Z,4.40
2022-11-29T18:54:18.343Z,4.40
2022-11-29T18:56:46.369Z,4.40
2022-11-29T18:59:17.895Z,4.40
2022-11-29T19:01:48.854Z,4.40
2022-11-29T19:04:20.683Z,4.50
2022-11-29T19:06:48.682Z,4.50
2022-11-29T19:09:24.280Z,4.40
2022-11-29T19:11:51.636Z,4.40
2022-11-29T19:14:19.757Z,4.30
2022-11-29T19:16:48.907Z,4.30
2022-11-29T19:19:16.343Z,4.20
2022-11-29T19:21:43.763Z,4.20
2022-11-29T19:24:15.317Z,4.20
2022-11-29T19:26:47.654Z,4.10
2022-11-29T19:29:17.442Z,4.20
2022-11-29T19:31:44.551Z,4.20
2022-11-29T19:34:11.924Z,4.30
2022-11-29T19:36:45.369Z,4.30
2022-11-29T19:39:17.246Z,4.30
2022-11-29T19:41:47.384Z,4.30
2022-11-29T19:44:15.191Z,4.40
2022-11-29T19:46:45.939Z,4.40
2022-11-29T19:49:14.309Z,4.40
2022-11-29T19:51:41.883Z,4.40
2022-11-29T19:54:11.020Z,4.30
2022-11-29T19:56:39.320Z,4.40
2022-11-29T19:59:08.292Z,4.40
2022-11-29T20:01:40.861Z,4.40
2022-11-29T20:04:10.873Z,4.30
2022-11-29T20:06:42.569Z,4.40
2022-11-29T20:09:11.119Z,4.40
2022-11-29T20:11:38.773Z,4.50
2022-11-29T20:14:08.026Z,4.50
2022-11-29T20:16:38.370Z,4.50
2022-11-29T20:19:12.778Z,4.40
2022-11-29T20:21:46.251Z,4.40
2022-11-29T20:24:15.941Z,4.40
2022-11-29T20:26:46.878Z,4.30
2022-11-29T20:29:16.977Z,4.40
2022-11-29T20:31:50.206Z,4.30
2022-11-29T20:34:18.931Z,4.40
2022-11-29T20:36:58.690Z,4.30
2022-11-29T20:39:55.153Z,4.30
2022-11-29T20:42:44.875Z,4.40
2022-11-29T20:45:14.484Z,4.40
2022-11-29T20:47:47.706Z,4.30
2022-11-29T20:50:23.829Z,4.40
2022-11-29T20:53:12.588Z,4.30
2022-11-29T20:55:45.027Z,4.40
2022-11-29T20:58:15.388Z,4.40
2022-11-29T21:00:43.382Z,4.30
2022-11-29T21:03:17.282Z,4.30
2022-11-29T21:05:45.103Z,4.30
2022-11-29T21:08:12.859Z,4.30
2022-11-29T21:10:40.534Z,4.30
2022-11-29T21:13:08.343Z,4.30
2022-11-29T21:15:35.523Z,4.40
2022-11-29T21:18:03.290Z,4.40
2022-11-29T21:20:30.504Z,4.40
2022-11-29T21:23:02.113Z,4.40
2022-11-29T21:25:35.117Z,4.40
2022-11-29T21:28:04.354Z,4.40
2022-11-29T21:30:31.362Z,4.40
2022-11-29T21:32:58.657Z,4.40
2022-11-29T21:35:26.285Z,4.40
2022-11-29T21:37:59.135Z,4.30
2022-11-29T21:40:26.054Z,4.30
2022-11-29T21:42:52.896Z,4.40
2022-11-29T21:45:20.100Z,4.40
2022-11-29T21:47:46.970Z,4.40
2022-11-29T21:50:13.982Z,4.40
2022-11-29T21:52:40.974Z,4.50
2022-11-29T21:55:08.192Z,4.50
2022-11-29T21:57:35.010Z,4.40
2022-11-29T22:00:02.406Z,4.50
2022-11-29T22:02:29.386Z,4.40
2022-11-29T22:04:56.316Z,4.40
2022-11-29T22:07:23.128Z,4.40
2022-11-29T22:09:50.030Z,4.50
2022-11-29T22:12:33.784Z,4.50
2022-11-29T22:15:01.683Z,4.50
2022-11-29T22:17:28.520Z,4.50
2022-11-29T22:19:55.314Z,4.50
2022-11-29T22:22:22.132Z,4.50
2022-11-29T22:24:49.170Z,4.50
2022-11-29T22:27:18.506Z,4.50
2022-11-29T22:29:45.529Z,4.50
2022-11-29T22:32:12.355Z,4.40
2022-11-29T22:34:39.274Z,4.40
2022-11-29T22:37:06.111Z,4.50
2022-11-29T22:39:33.096Z,4.50
2022-11-29T22:41:59.901Z,4.50
2022-11-29T22:44:26.716Z,4.50
2022-11-29T22:46:53.620Z,4.50
2022-11-29T22:49:20.486Z,4.50
2022-11-29T22:51:47.432Z,4.50
2022-11-29T22:54:18.022Z,4.50
2022-11-29T22:56:45.990Z,4.50
2022-11-29T22:59:13.870Z,4.50
2022-11-29T23:01:41.876Z,4.60
2022-11-29T23:04:10.316Z,4.60
2022-11-29T23:06:45.629Z,4.60
2022-11-29T23:09:16.538Z,4.60
2022-11-29T23:11:45.763Z,4.60
2022-11-29T23:14:12.840Z,4.50
2022-11-29T23:16:40.039Z,4.50
2022-11-29T23:19:06.931Z,4.60
2022-11-29T23:21:37.032Z,4.50
2022-11-29T23:24:04.481Z,4.50
2022-11-29T23:26:38.914Z,4.50
2022-11-29T23:29:11.483Z,4.50
2022-11-29T23:31:38.666Z,4.50
2022-11-29T23:34:05.818Z,4.60
2022-11-29T23:36:32.876Z,4.60
2022-11-29T23:39:00.505Z,4.60
2022-11-29T23:41:27.396Z,4.50
2022-11-29T23:43:54.222Z,4.50
2022-11-29T23:46:23.402Z,4.50
2022-11-29T23:48:50.480Z,4.60
2022-11-29T23:51:18.512Z,4.60
2022-11-29T23:53:46.753Z,4.60
2022-11-29T23:56:17.707Z,4.60
2022-11-29T23:58:45.024Z,4.50
